createdAt,value
2019-03-11T00:00:32.259Z,83.80
2019-03-11T00:03:12.365Z,83.80
2019-03-11T00:05:45.372Z,83.80
2019-03-11T00:08:17.244Z,83.90
2019-03-11T00:10:49.315Z,84.00
2019-03-11T00:13:20.675Z,84.10
2019-03-11T00:15:52.058Z,84.00
2019-03-11T00:18:24.110Z,84.00
2019-03-11T00:20:55.641Z,84.00
2019-03-11T00:23:27.370Z,84.00
2019-03-11T00:25:58.798Z,84.00
2019-03-11T00:28:30.439Z,83.90
2019-03-11T00:31:02.888Z,83.90
2019-03-11T00:33:34.448Z,83.80
2019-03-11T00:36:05.929Z,83.70
2019-03-11T00:38:37.303Z,83.80
2019-03-11T00:41:08.690Z,83.90
2019-03-11T00:43:41.247Z,84.10
2019-03-11T00:46:13.695Z,84.10
2019-03-11T00:48:45.091Z,84.30
2019-03-11T00:51:16.886Z,84.30
2019-03-11T00:53:48.415Z,84.50
2019-03-11T00:56:19.929Z,84.50
2019-03-11T00:58:51.149Z,84.40
2019-03-11T01:01:22.533Z,84.30
2019-03-11T01:03:54.158Z,84.50
2019-03-11T01:06:25.880Z,84.30
2019-03-11T01:08:57.344Z,84.30
2019-03-11T01:11:28.845Z,84.30
2019-03-11T01:14:00.261Z,84.30
2019-03-11T01:16:32.377Z,84.40
2019-03-11T01:19:05.175Z,84.40
2019-03-11T01:21:36.776Z,84.40
2019-03-11T01:24:08.235Z,84.40
2019-03-11T01:26:41.184Z,83.70
2019-03-11T01:29:12.857Z,84.30
2019-03-11T01:31:44.719Z,84.20
2019-03-11T01:34:16.141Z,84.20
2019-03-11T01:36:47.600Z,84.30
2019-03-11T01:39:19.029Z,84.30
2019-03-11T01:41:50.688Z,84.40
2019-03-11T01:44:22.272Z,84.60
2019-03-11T01:46:54.261Z,84.60
2019-03-11T01:49:25.709Z,85.40
2019-03-11T01:51:57.291Z,84.60
2019-03-11T01:54:29.962Z,84.40
2019-03-11T01:57:01.399Z,84.30
2019-03-11T01:59:32.879Z,84.00
2019-03-11T02:02:04.490Z,83.90
2019-03-11T02:04:38.692Z,83.70
2019-03-11T02:07:10.641Z,83.70
2019-03-11T02:09:43.441Z,83.60
2019-03-11T02:12:14.902Z,83.60
2019-03-11T02:14:46.397Z,83.40
2019-03-11T02:17:18.868Z,83.30
2019-03-11T02:19:51.129Z,83.30
2019-03-11T02:22:22.501Z,83.30
2019-03-11T02:24:53.927Z,83.30
2019-03-11T02:27:25.610Z,83.30
2019-03-11T02:29:57.022Z,83.20
2019-03-11T02:32:29.664Z,83.30
2019-03-11T02:35:01.369Z,83.30
2019-03-11T02:37:33.469Z,83.50
2019-03-11T02:40:05.878Z,83.80
2019-03-11T02:42:38.048Z,84.10
2019-03-11T02:45:10.158Z,84.40
2019-03-11T02:47:41.506Z,84.60
2019-03-11T02:50:13.325Z,84.70
2019-03-11T02:52:44.818Z,85.00
2019-03-11T02:55:16.204Z,85.10
2019-03-11T02:57:47.638Z,85.20
2019-03-11T03:00:20.227Z,85.30
2019-03-11T03:03:13.630Z,85.40
2019-03-11T03:05:49.320Z,85.40
2019-03-11T03:08:22.728Z,86.20
2019-03-11T03:10:54.235Z,85.30
2019-03-11T03:13:25.671Z,85.10
2019-03-11T03:15:57.465Z,84.70
2019-03-11T03:18:29.011Z,84.50
2019-03-11T03:21:00.782Z,84.20
2019-03-11T03:23:32.354Z,84.20
2019-03-11T03:26:03.757Z,83.90
2019-03-11T03:28:35.165Z,83.70
2019-03-11T03:31:06.471Z,83.60
2019-03-11T03:33:38.091Z,83.50
2019-03-11T03:36:09.640Z,83.30
2019-03-11T03:38:41.138Z,83.10
2019-03-11T03:41:12.502Z,83.10
2019-03-11T03:43:43.813Z,82.90
2019-03-11T03:46:19.255Z,82.70
2019-03-11T03:48:48.333Z,82.80
2019-03-11T03:51:20.032Z,82.80
2019-03-11T03:53:52.495Z,82.70
2019-03-11T03:56:23.858Z,82.60
2019-03-11T03:58:55.285Z,82.60
2019-03-11T04:03:58.602Z,93.50
2019-03-11T04:09:02.293Z,95.50
2019-03-11T04:11:36.611Z,81.60
2019-03-11T04:14:07.968Z,82.20
2019-03-11T04:16:39.491Z,82.30
2019-03-11T04:19:10.926Z,82.90
2019-03-11T04:24:12.911Z,81.60
2019-03-11T04:26:47.336Z,82.30
2019-03-11T04:29:20.967Z,82.30
2019-03-11T04:31:52.617Z,82.30
2019-03-11T04:34:25.935Z,83.30
2019-03-11T04:36:58.177Z,82.30
2019-03-11T04:39:31.319Z,82.20
2019-03-11T04:42:03.027Z,82.20
2019-03-11T04:44:35.468Z,82.20
2019-03-11T04:47:06.850Z,82.10
2019-03-11T04:49:38.204Z,82.10
2019-03-11T04:52:14.592Z,82.10
2019-03-11T04:54:46.025Z,81.90
2019-03-11T04:57:17.778Z,81.90
2019-03-11T04:59:49.089Z,81.90
2019-03-11T05:02:20.792Z,81.90
2019-03-11T05:04:52.677Z,81.80
2019-03-11T05:07:25.539Z,81.80
2019-03-11T05:09:56.970Z,81.90
2019-03-11T05:12:28.542Z,81.90
2019-03-11T05:15:00.026Z,81.90
2019-03-11T05:17:33.571Z,81.20
2019-03-11T05:20:05.701Z,82.00
2019-03-11T05:22:37.203Z,82.00
2019-03-11T05:25:11.206Z,82.00
2019-03-11T05:27:43.466Z,82.10
2019-03-11T05:30:17.644Z,82.20
2019-03-11T05:32:49.280Z,82.40
2019-03-11T05:35:22.724Z,82.40
2019-03-11T05:37:54.448Z,82.40
2019-03-11T05:40:26.252Z,82.50
2019-03-11T05:42:57.777Z,82.60
2019-03-11T05:45:29.427Z,82.60
2019-03-11T05:54:16.579Z,82.90
2019-03-11T09:42:02.921Z,53.70
2019-03-11T09:44:34.513Z,51.40
2019-03-11T09:47:05.788Z,50.50
2019-03-11T09:49:37.286Z,50.20
2019-03-11T09:52:08.841Z,49.80
2019-03-11T09:54:40.371Z,49.60
2019-03-11T09:57:11.771Z,49.30
2019-03-11T09:59:43.375Z,49.60
2019-03-11T10:02:14.927Z,50.10
2019-03-11T10:04:47.898Z,49.60
2019-03-11T10:51:23.037Z,49.70
2019-03-11T10:53:55.367Z,48.10
2019-03-11T12:18:56.747Z,48.10
2019-03-11T12:21:33.863Z,48.20
2019-03-11T12:43:50.386Z,49.70
2019-03-11T12:46:22.279Z,49.90
2019-03-11T12:48:53.862Z,50.20
2019-03-11T12:51:25.527Z,50.30
2019-03-11T13:11:46.648Z,53.70
2019-03-11T13:14:18.161Z,53.80
2019-03-11T13:16:49.682Z,55.00
2019-03-11T13:19:20.995Z,55.10
2019-03-11T13:21:52.655Z,55.50
2019-03-11T13:24:24.166Z,56.50
2019-03-11T13:26:55.866Z,55.90
2019-03-11T13:29:27.142Z,56.20
2019-03-11T13:31:58.738Z,57.20
2019-03-11T13:34:30.442Z,56.90
2019-03-11T13:37:02.079Z,57.40
2019-03-11T13:39:33.682Z,57.50
2019-03-11T13:42:05.089Z,57.30
2019-03-11T13:44:38.140Z,57.50
2019-03-11T13:47:09.922Z,57.60
2019-03-11T13:49:41.429Z,58.30
2019-03-11T13:52:14.374Z,57.80
2019-03-11T13:54:47.034Z,57.70
2019-03-11T13:57:18.465Z,57.90
2019-03-11T13:59:49.907Z,58.70
2019-03-11T14:02:21.298Z,58.10
2019-03-11T14:04:52.725Z,58.30
2019-03-11T14:07:24.246Z,58.50
2019-03-11T14:10:10.000Z,58.30
2019-03-11T14:12:41.765Z,58.30
2019-03-11T14:15:13.892Z,58.70
2019-03-11T14:17:45.344Z,58.80
2019-03-11T14:20:19.007Z,58.10
2019-03-11T14:22:50.526Z,58.40
2019-03-11T14:25:22.358Z,58.60
2019-03-11T14:27:53.910Z,58.30
2019-03-11T14:30:25.498Z,58.60
2019-03-11T14:32:56.941Z,59.10
2019-03-11T14:41:57.615Z,58.80
2019-03-11T14:44:29.081Z,59.20
2019-03-11T14:47:00.414Z,59.70
2019-03-11T14:49:32.076Z,60.20
2019-03-11T14:52:03.861Z,60.50
2019-03-11T14:54:38.649Z,60.80
2019-03-11T14:57:10.424Z,60.80
2019-03-11T14:59:45.471Z,60.60
2019-03-11T15:02:17.265Z,60.50
2019-03-11T15:35:39.257Z,63.90
2019-03-11T15:38:11.077Z,62.20
2019-03-11T15:40:42.676Z,64.40
2019-03-11T15:43:14.137Z,64.50
2019-03-11T15:45:45.728Z,65.10
2019-03-11T15:48:17.489Z,65.40
2019-03-11T16:02:25.357Z,67.10
2019-03-11T16:11:19.379Z,67.10
2019-03-11T16:13:50.770Z,67.30
2019-03-11T16:16:22.231Z,67.70
2019-03-11T16:18:58.891Z,68.00
2019-03-11T16:21:30.234Z,68.40
2019-03-11T16:24:01.690Z,69.60
2019-03-11T16:26:33.968Z,68.80
2019-03-11T16:29:05.773Z,68.90
2019-03-11T16:31:37.926Z,69.20
2019-03-11T16:34:09.301Z,69.60
2019-03-11T16:36:41.217Z,70.40
2019-03-11T16:56:35.876Z,71.90
2019-03-11T16:59:07.816Z,72.50
2019-03-11T17:01:46.830Z,74.30
2019-03-11T17:04:18.288Z,74.70
2019-03-11T17:06:52.806Z,75.40
2019-03-11T17:09:24.249Z,74.50
2019-03-11T17:11:55.808Z,77.20
2019-03-11T17:14:28.570Z,77.00
2019-03-11T17:17:01.019Z,77.70
2019-03-11T17:19:34.053Z,78.90
2019-03-11T17:22:09.109Z,78.70
2019-03-11T17:24:40.776Z,79.30
2019-03-11T17:27:12.079Z,78.10
2019-03-11T17:29:43.569Z,78.50
2019-03-11T17:32:19.645Z,78.50
2019-03-11T17:37:23.033Z,78.20
2019-03-11T17:39:54.246Z,78.20
2019-03-11T17:42:25.839Z,78.20
2019-03-11T17:44:57.150Z,78.50
2019-03-11T17:47:29.277Z,78.40
2019-03-11T17:50:02.326Z,79.50
2019-03-11T17:52:35.043Z,78.70
2019-03-11T17:55:07.031Z,78.80
2019-03-11T17:57:40.392Z,79.00
2019-03-11T18:00:18.042Z,78.80
2019-03-11T18:02:49.570Z,78.70
2019-03-11T18:05:21.185Z,78.80
2019-03-11T18:07:52.993Z,79.00
2019-03-11T18:10:24.696Z,78.30
2019-03-11T18:12:56.233Z,78.50
2019-03-11T18:15:27.772Z,78.70
2019-03-11T18:17:59.308Z,79.50
2019-03-11T18:20:31.185Z,78.50
2019-03-11T18:23:02.465Z,78.40
2019-03-11T18:25:33.880Z,78.50
2019-03-11T18:28:05.942Z,78.50
2019-03-11T18:30:40.019Z,78.50
2019-03-11T18:33:11.462Z,78.90
2019-03-11T18:35:44.034Z,78.80
2019-03-11T18:38:17.750Z,79.00
2019-03-11T18:40:49.597Z,78.90
2019-03-11T18:43:21.332Z,79.10
2019-03-11T18:48:23.704Z,78.40
2019-03-11T18:50:55.380Z,79.10
2019-03-11T18:53:27.492Z,79.20
2019-03-11T18:55:59.426Z,79.40
2019-03-11T18:58:31.404Z,79.40
2019-03-11T19:01:03.007Z,79.60
2019-03-11T19:03:45.758Z,79.70
2019-03-11T19:06:17.506Z,79.60
2019-03-11T19:08:49.120Z,79.70
2019-03-11T19:11:22.786Z,79.70
2019-03-11T19:13:54.371Z,79.80
2019-03-11T19:16:25.892Z,79.90
2019-03-11T19:18:58.411Z,80.10
2019-03-11T19:21:30.022Z,80.30
2019-03-11T19:24:03.531Z,80.30
2019-03-11T19:26:35.172Z,80.30
2019-03-11T19:29:07.840Z,83.20
2019-03-11T19:31:42.856Z,83.90
2019-03-11T19:34:14.743Z,84.40
2019-03-11T19:36:47.790Z,83.10
2019-03-11T19:39:24.261Z,81.30
2019-03-11T19:41:55.763Z,81.30
2019-03-11T19:44:27.493Z,82.40
2019-03-11T19:47:00.277Z,82.40
2019-03-11T19:49:32.533Z,82.20
2019-03-11T19:52:04.138Z,82.20
2019-03-11T19:54:35.633Z,82.40
2019-03-11T19:57:07.316Z,82.30
2019-03-11T19:59:40.787Z,82.70
2019-03-11T20:02:12.048Z,82.50
2019-03-11T20:04:44.431Z,82.60
2019-03-11T20:07:16.216Z,82.30
2019-03-11T20:09:48.356Z,82.50
2019-03-11T20:12:22.881Z,81.90
2019-03-11T20:14:56.352Z,82.30
2019-03-11T20:26:48.960Z,84.50
2019-03-11T20:29:23.317Z,82.30
2019-03-11T20:32:06.158Z,82.50
2019-03-11T20:34:38.390Z,82.60
2019-03-11T20:37:11.933Z,82.80
2019-03-11T20:39:44.090Z,85.90
2019-03-11T20:44:46.688Z,88.90
2019-03-11T20:47:18.794Z,82.50
2019-03-11T20:53:05.545Z,82.10
2019-03-11T21:13:04.928Z,82.10
2019-03-11T21:15:36.455Z,82.00
2019-03-11T21:18:07.883Z,82.00
2019-03-11T21:20:39.354Z,81.20
2019-03-11T21:23:14.717Z,81.80
2019-03-11T21:28:54.782Z,81.60
2019-03-11T21:31:26.204Z,81.60
2019-03-11T21:40:09.516Z,81.60
2019-03-11T21:42:41.798Z,80.90
2019-03-11T21:45:15.478Z,81.60
2019-03-11T21:47:47.271Z,81.50
2019-03-11T21:50:20.228Z,81.60
2019-03-11T21:52:51.696Z,81.60
2019-03-11T21:55:24.979Z,81.60
2019-03-11T21:57:56.214Z,81.50
2019-03-11T22:00:34.233Z,81.50
2019-03-11T22:03:06.228Z,81.50
2019-03-11T22:05:37.661Z,81.50
2019-03-11T22:08:09.105Z,81.50
2019-03-11T22:10:40.422Z,81.50
2019-03-11T22:13:11.718Z,81.50
2019-03-11T22:15:43.000Z,81.40
2019-03-11T22:18:14.574Z,81.50
2019-03-11T22:20:46.157Z,81.50
2019-03-11T22:23:17.473Z,81.50
2019-03-11T22:25:48.929Z,81.60
2019-03-11T22:28:20.198Z,81.50
2019-03-11T22:30:52.161Z,81.50
2019-03-11T22:33:23.589Z,81.40
2019-03-11T22:35:54.892Z,81.40
2019-03-11T22:38:26.359Z,81.50
2019-03-11T22:40:57.659Z,81.50
2019-03-11T22:43:29.125Z,81.50
2019-03-11T22:46:00.434Z,81.50
2019-03-11T22:48:31.822Z,81.50
2019-03-11T22:51:03.259Z,81.50
2019-03-11T22:56:36.883Z,81.50
2019-03-11T22:59:08.496Z,81.50
2019-03-11T23:01:40.514Z,81.50
2019-03-11T23:38:56.974Z,81.20
2019-03-11T23:41:29.207Z,81.10
2019-03-11T23:44:01.450Z,80.90
2019-03-11T23:46:32.797Z,80.80
2019-03-11T23:49:05.632Z,80.90
2019-03-11T23:51:36.830Z,81.10
2019-03-11T23:54:08.244Z,80.80
2019-03-11T23:56:39.847Z,81.30
2019-03-11T23:59:11.361Z,81.50
